Terminal Aerodrome Forecast
Issued by NWS

Home | Current Version | Previous Version | Text Only | Print | Product List | Glossary On
Versions: 1 2 3 4 5 6 7 8 9 10 11 12 13 14 15 16 17 18 19 20 21 22 23 24 25 26 27 28 29 30 31 32 33 34 35 36 37 38 39 40 41 42 43 44 45 46 47 48 49 50
000
FTUS44 KLIX 230207 AAA
TAFASD
TAF AMD
KASD 230207Z 2302/2324 13009KT P6SM BKN011
     FM230800 13004KT 4SM BR BKN008 BKN020
      TEMPO 2309/2313 1 1/2SM BR
     FM231530 13005KT P6SM BKN020
     FM231800 13007KT P6SM SCT025 OVC035 PROB30 2318/2324 4SM -TSRA
      OVC020CB=

USA.gov is the U.S. government's official web portal to all federal, state and local government web resources and services.